createdAt,value
2018-06-08T00:01:16.134Z,99.90
2018-06-08T00:03:43.648Z,99.90
2018-06-08T00:06:11.173Z,99.90
2018-06-08T00:08:38.724Z,99.90
2018-06-08T00:11:06.265Z,99.90
2018-06-08T00:13:33.756Z,99.90
2018-06-08T00:18:28.718Z,99.90
2018-06-08T00:20:56.253Z,99.90
2018-06-08T00:23:23.777Z,99.90
2018-06-08T00:25:51.351Z,99.90
2018-06-08T00:28:18.847Z,99.90
2018-06-08T00:30:46.960Z,99.90
2018-06-08T00:33:14.649Z,99.90
2018-06-08T00:35:42.181Z,99.90
2018-06-08T00:38:09.681Z,99.90
2018-06-08T00:40:43.960Z,99.90
2018-06-08T00:43:11.453Z,99.90
2018-06-08T00:45:38.976Z,99.90
2018-06-08T00:50:34.013Z,99.90
2018-06-08T00:53:01.686Z,99.90
2018-06-08T00:55:29.193Z,99.90
2018-06-08T00:57:56.717Z,99.90
2018-06-08T01:00:24.233Z,99.90
2018-06-08T01:02:51.760Z,99.90
2018-06-08T01:05:19.304Z,99.90
2018-06-08T01:07:46.801Z,99.90
2018-06-08T01:10:14.324Z,99.90
2018-06-08T01:12:41.828Z,99.90
2018-06-08T01:15:09.375Z,99.90
2018-06-08T01:20:04.433Z,99.90
2018-06-08T01:22:31.981Z,99.90
2018-06-08T01:24:59.473Z,99.90
2018-06-08T01:27:27.002Z,99.90
2018-06-08T01:29:54.507Z,99.90
2018-06-08T01:32:22.013Z,99.90
2018-06-08T01:34:49.537Z,99.90
2018-06-08T01:37:17.032Z,99.90
2018-06-08T01:39:44.560Z,99.90
2018-06-08T01:44:39.565Z,99.90
2018-06-08T01:47:07.080Z,99.90
2018-06-08T01:49:34.593Z,99.90
2018-06-08T01:52:02.121Z,99.90
2018-06-08T01:54:29.618Z,99.90
2018-06-08T01:56:57.131Z,99.90
2018-06-08T01:59:24.637Z,99.90
2018-06-08T02:01:52.172Z,99.90
2018-06-08T02:04:19.665Z,99.90
2018-06-08T02:06:47.226Z,99.90
2018-06-08T02:09:14.786Z,99.90
2018-06-08T02:11:42.341Z,99.90
2018-06-08T02:14:09.890Z,99.90
2018-06-08T02:16:37.421Z,99.90
2018-06-08T02:21:32.546Z,99.90
2018-06-08T02:26:27.465Z,99.90
2018-06-08T02:28:54.986Z,99.90
2018-06-08T02:31:22.508Z,99.90
2018-06-08T02:33:50.005Z,99.90
2018-06-08T02:36:17.553Z,99.90
2018-06-08T02:38:45.083Z,99.90
2018-06-08T02:41:12.608Z,99.90
2018-06-08T02:43:40.106Z,99.90
2018-06-08T02:46:07.725Z,99.90
2018-06-08T02:51:02.725Z,99.90
2018-06-08T02:53:30.226Z,99.90
2018-06-08T02:55:57.770Z,99.90
2018-06-08T02:58:25.291Z,99.90
2018-06-08T03:00:52.835Z,99.90
2018-06-08T03:03:20.367Z,99.90
2018-06-08T03:05:47.927Z,99.90
2018-06-08T03:08:15.430Z,99.90
2018-06-08T03:10:43.006Z,99.90
2018-06-08T03:13:10.537Z,99.90
2018-06-08T03:15:38.029Z,99.90
2018-06-08T03:18:05.624Z,99.90
2018-06-08T03:20:33.130Z,99.90
2018-06-08T03:23:00.641Z,99.90
2018-06-08T03:25:28.150Z,99.90
2018-06-08T03:27:55.661Z,99.90
2018-06-08T03:30:23.361Z,99.90
2018-06-08T03:32:50.905Z,99.90
2018-06-08T03:35:18.420Z,99.90
2018-06-08T03:37:45.935Z,99.90
2018-06-08T03:40:13.480Z,99.90
2018-06-08T03:42:40.997Z,99.90
2018-06-08T03:45:08.501Z,99.90
2018-06-08T03:47:36.050Z,99.90
2018-06-08T03:50:03.644Z,99.90
2018-06-08T03:52:31.162Z,99.90
2018-06-08T03:54:58.669Z,99.90
2018-06-08T03:57:26.194Z,99.90
2018-06-08T03:59:53.718Z,99.90
2018-06-08T04:02:21.320Z,99.90
2018-06-08T04:04:48.807Z,99.90
2018-06-08T04:07:16.349Z,99.90
2018-06-08T04:09:43.862Z,99.90
2018-06-08T04:12:11.377Z,99.90
2018-06-08T04:14:38.890Z,99.90
2018-06-08T04:17:06.420Z,99.90
2018-06-08T04:19:33.911Z,99.90
2018-06-08T04:22:01.467Z,99.90
2018-06-08T04:24:28.956Z,99.90
2018-06-08T04:26:56.545Z,99.90
2018-06-08T04:29:24.069Z,99.90
2018-06-08T04:31:51.604Z,99.90
2018-06-08T04:34:19.100Z,99.90
2018-06-08T04:36:47.142Z,99.90
2018-06-08T04:39:14.637Z,99.90
2018-06-08T04:41:42.181Z,99.90
2018-06-08T04:46:37.144Z,99.90
2018-06-08T04:49:04.701Z,99.90
2018-06-08T04:51:32.265Z,99.90
2018-06-08T04:53:59.776Z,99.90
2018-06-08T04:56:27.301Z,99.90
2018-06-08T04:58:54.868Z,99.90
2018-06-08T05:01:22.393Z,99.90
2018-06-08T05:03:49.939Z,99.90
2018-06-08T05:06:17.453Z,99.90
2018-06-08T05:08:45.009Z,99.90
2018-06-08T05:11:12.585Z,99.90
2018-06-08T05:13:40.126Z,99.90
2018-06-08T05:16:07.624Z,99.90
2018-06-08T05:18:35.170Z,99.90
2018-06-08T05:21:02.726Z,99.90
2018-06-08T05:23:30.265Z,99.90
2018-06-08T05:25:57.769Z,99.90
2018-06-08T05:28:25.431Z,99.90
2018-06-08T05:30:52.961Z,99.90
2018-06-08T05:33:20.500Z,99.90
2018-06-08T05:35:48.004Z,99.90
2018-06-08T05:38:15.686Z,99.90
2018-06-08T05:40:43.210Z,99.90
2018-06-08T05:43:10.738Z,99.90
2018-06-08T05:48:05.831Z,99.90
2018-06-08T05:50:33.379Z,99.90
2018-06-08T05:53:01.120Z,99.90
2018-06-08T05:55:28.636Z,99.90
2018-06-08T06:00:23.659Z,99.90
2018-06-08T06:05:18.642Z,99.90
2018-06-08T06:07:46.173Z,99.90
2018-06-08T06:10:13.712Z,99.90
2018-06-08T06:12:41.232Z,99.90
2018-06-08T06:15:08.728Z,99.90
2018-06-08T06:17:36.289Z,99.90
2018-06-08T06:20:04.766Z,99.90
2018-06-08T06:22:32.271Z,99.90
2018-06-08T06:24:59.812Z,99.90
2018-06-08T06:27:27.341Z,99.90
2018-06-08T06:29:54.874Z,99.90
2018-06-08T06:32:22.380Z,99.90
2018-06-08T06:34:56.022Z,99.90
2018-06-08T06:37:23.533Z,99.90
2018-06-08T06:39:51.078Z,99.90
2018-06-08T06:42:18.602Z,99.90
2018-06-08T06:44:46.112Z,99.90
2018-06-08T06:47:13.614Z,99.90
2018-06-08T06:49:41.306Z,99.90
2018-06-08T06:52:09.197Z,99.90
2018-06-08T06:54:36.742Z,99.90
2018-06-08T06:57:04.326Z,99.90
2018-06-08T06:59:31.873Z,99.90
2018-06-08T07:01:59.379Z,99.90
2018-06-08T07:04:26.991Z,99.90
2018-06-08T07:06:54.510Z,99.90
2018-06-08T07:09:22.033Z,99.90
2018-06-08T07:11:49.552Z,99.90
2018-06-08T07:14:17.074Z,99.90
2018-06-08T07:16:44.582Z,99.90
2018-06-08T07:19:12.122Z,99.90
2018-06-08T07:21:39.661Z,99.90
2018-06-08T07:24:07.257Z,99.90
2018-06-08T07:26:34.785Z,99.90
2018-06-08T07:29:02.298Z,99.90
2018-06-08T07:31:29.879Z,99.90
2018-06-08T07:33:57.409Z,99.90
2018-06-08T07:36:24.952Z,99.90
2018-06-08T07:38:53.145Z,99.90
2018-06-08T07:41:20.689Z,99.90
2018-06-08T07:43:48.577Z,99.90
2018-06-08T07:46:16.341Z,99.90
2018-06-08T07:48:44.565Z,99.90
2018-06-08T07:51:12.573Z,99.90
2018-06-08T07:53:40.812Z,99.90
2018-06-08T07:56:08.324Z,99.90
2018-06-08T07:58:35.873Z,99.90
2018-06-08T08:01:03.425Z,99.90
2018-06-08T08:03:30.949Z,99.90
2018-06-08T08:05:58.506Z,99.20
2018-06-08T08:08:26.065Z,98.00
2018-06-08T08:10:53.677Z,98.60
2018-06-08T08:13:21.237Z,98.00
2018-06-08T08:15:48.773Z,98.70
2018-06-08T08:18:16.328Z,98.50
2018-06-08T08:20:43.863Z,98.00
2018-06-08T08:23:11.367Z,96.90
2018-06-08T08:25:38.919Z,97.60
2018-06-08T08:28:06.456Z,97.20
2018-06-08T08:30:40.616Z,97.40
2018-06-08T08:33:08.211Z,98.40
2018-06-08T08:35:35.760Z,97.10
2018-06-08T08:38:03.328Z,98.00
2018-06-08T08:40:30.890Z,98.80
2018-06-08T08:42:58.613Z,98.80
2018-06-08T08:45:27.181Z,98.60
2018-06-08T08:47:54.693Z,99.90
2018-06-08T08:50:22.252Z,99.90
2018-06-08T08:52:49.778Z,99.90
2018-06-08T08:55:17.310Z,99.90
2018-06-08T08:57:44.834Z,99.90
2018-06-08T09:00:12.382Z,99.80
2018-06-08T09:02:39.949Z,99.60
2018-06-08T09:05:07.580Z,99.30
2018-06-08T09:07:35.093Z,99.70
2018-06-08T09:10:02.673Z,99.60
2018-06-08T09:12:30.212Z,99.40
2018-06-08T09:14:57.817Z,99.60
2018-06-08T09:17:25.415Z,99.30
2018-06-08T09:19:52.966Z,99.90
2018-06-08T09:22:20.494Z,99.90
2018-06-08T09:24:48.069Z,99.90
2018-06-08T09:27:15.637Z,99.90
2018-06-08T09:29:43.173Z,99.90
2018-06-08T09:32:10.697Z,99.90
2018-06-08T09:34:38.200Z,99.90
2018-06-08T09:37:05.809Z,99.90
2018-06-08T09:39:33.295Z,99.90
2018-06-08T09:44:28.513Z,99.90
2018-06-08T09:46:56.168Z,99.90
2018-06-08T09:49:23.680Z,99.90
2018-06-08T09:51:51.216Z,99.90
2018-06-08T09:54:18.718Z,99.90
2018-06-08T09:56:46.254Z,99.20
2018-06-08T09:59:13.781Z,99.70
2018-06-08T10:01:41.405Z,99.10
2018-06-08T10:04:08.909Z,99.40
2018-06-08T10:06:36.433Z,99.30
2018-06-08T10:09:06.556Z,99.20
2018-06-08T10:11:34.087Z,99.90
2018-06-08T10:14:01.600Z,99.90
2018-06-08T10:16:29.209Z,99.70
2018-06-08T10:18:56.720Z,99.70
2018-06-08T10:21:24.314Z,99.90
2018-06-08T10:23:52.044Z,99.90
2018-06-08T10:26:19.565Z,99.90
2018-06-08T10:28:47.661Z,99.90
2018-06-08T10:31:15.187Z,99.50
2018-06-08T10:33:42.696Z,98.70
2018-06-08T10:36:10.268Z,99.30
2018-06-08T10:38:37.808Z,99.10
2018-06-08T10:41:05.389Z,99.00
2018-06-08T10:43:33.152Z,99.70
2018-06-08T10:46:00.655Z,99.70
2018-06-08T10:48:28.277Z,99.60
2018-06-08T10:50:55.826Z,99.10
2018-06-08T10:53:23.436Z,99.30
2018-06-08T10:55:50.949Z,99.50
2018-06-08T10:58:18.474Z,99.30
2018-06-08T11:00:45.976Z,99.60
2018-06-08T11:03:13.525Z,99.70
2018-06-08T11:05:41.060Z,99.80
2018-06-08T11:08:08.619Z,99.60
2018-06-08T11:10:36.144Z,99.80
2018-06-08T11:13:03.701Z,99.90
2018-06-08T11:15:31.226Z,99.30
2018-06-08T11:17:58.749Z,99.50
2018-06-08T11:20:26.263Z,99.30
2018-06-08T11:22:53.802Z,99.30
2018-06-08T11:25:21.295Z,99.60
2018-06-08T11:32:43.720Z,99.40
2018-06-08T11:35:11.254Z,99.30
2018-06-08T11:37:38.780Z,99.20
2018-06-08T11:40:06.489Z,99.40
2018-06-08T11:42:34.001Z,98.50
2018-06-08T11:45:01.538Z,97.90
2018-06-08T11:47:29.061Z,97.80
2018-06-08T11:49:56.620Z,98.10
2018-06-08T11:52:24.137Z,97.00
2018-06-08T11:54:51.667Z,96.90
2018-06-08T11:57:19.229Z,97.00
2018-06-08T11:59:46.760Z,96.50
2018-06-08T12:02:14.273Z,95.80
2018-06-08T12:04:41.801Z,96.00
2018-06-08T12:07:09.315Z,96.00
2018-06-08T12:09:36.860Z,95.90
2018-06-08T12:12:04.516Z,94.70
2018-06-08T12:14:32.052Z,94.60
2018-06-08T12:16:59.621Z,93.70
2018-06-08T12:19:27.107Z,94.40
2018-06-08T12:21:54.701Z,93.40
2018-06-08T12:24:22.206Z,92.40
2018-06-08T12:26:49.979Z,92.60
2018-06-08T12:29:17.351Z,92.00
2018-06-08T12:31:44.968Z,92.30
2018-06-08T12:34:12.545Z,92.90
2018-06-08T12:36:40.069Z,92.60
2018-06-08T12:39:07.724Z,93.00
2018-06-08T12:41:35.564Z,93.10
2018-06-08T12:44:03.109Z,92.90
2018-06-08T12:46:30.706Z,92.40
2018-06-08T12:48:58.244Z,92.30
2018-06-08T12:51:25.821Z,92.90
2018-06-08T12:53:53.389Z,93.60
2018-06-08T12:56:20.922Z,93.60
2018-06-08T12:58:48.438Z,93.90
2018-06-08T13:01:16.046Z,93.00
2018-06-08T13:03:43.613Z,92.90
2018-06-08T13:06:11.162Z,92.50
2018-06-08T13:08:38.685Z,93.40
2018-06-08T13:11:06.301Z,91.70
2018-06-08T13:13:33.872Z,91.10
2018-06-08T13:16:01.502Z,90.50
2018-06-08T13:18:33.604Z,89.70
2018-06-08T13:21:02.938Z,89.70
2018-06-08T13:23:30.532Z,90.20
2018-06-08T13:25:58.186Z,90.20
2018-06-08T13:28:25.732Z,90.50
2018-06-08T13:30:53.265Z,90.20
2018-06-08T13:33:20.825Z,90.30
2018-06-08T13:35:48.349Z,91.40
2018-06-08T13:38:15.877Z,91.20
2018-06-08T13:40:43.412Z,92.90
2018-06-08T13:43:11.073Z,90.60
2018-06-08T13:45:38.627Z,90.30
2018-06-08T13:48:06.184Z,91.60
2018-06-08T13:50:33.765Z,90.90
2018-06-08T13:53:01.379Z,91.50
2018-06-08T13:55:28.913Z,91.80
2018-06-08T13:57:56.452Z,90.50
2018-06-08T14:00:23.969Z,90.50
2018-06-08T14:02:51.471Z,90.80
2018-06-08T14:05:19.002Z,90.90
2018-06-08T14:07:46.531Z,90.60
2018-06-08T14:10:14.044Z,89.80
2018-06-08T14:12:41.601Z,87.80
2018-06-08T14:15:09.137Z,87.60
2018-06-08T14:17:36.673Z,88.90
2018-06-08T14:20:04.300Z,88.20
2018-06-08T14:22:31.874Z,87.60
2018-06-08T14:24:59.397Z,87.10
2018-06-08T14:27:26.940Z,85.70
2018-06-08T14:29:54.467Z,87.50
2018-06-08T14:32:22.045Z,85.80
2018-06-08T14:34:49.600Z,83.80
2018-06-08T14:37:17.094Z,84.80
2018-06-08T14:39:44.978Z,82.00
2018-06-08T14:42:12.515Z,79.10
2018-06-08T14:44:40.085Z,81.20
2018-06-08T14:47:07.671Z,79.20
2018-06-08T14:49:35.301Z,81.90
2018-06-08T14:52:02.914Z,80.80
2018-06-08T14:54:30.496Z,79.90
2018-06-08T14:56:58.054Z,82.40
2018-06-08T14:59:25.753Z,77.40
2018-06-08T15:01:53.276Z,76.30
2018-06-08T15:04:27.442Z,76.00
2018-06-08T15:06:54.973Z,78.50
2018-06-08T15:09:22.514Z,77.40
2018-06-08T15:11:50.076Z,77.10
2018-06-08T15:14:17.582Z,74.40
2018-06-08T15:16:46.150Z,71.10
2018-06-08T15:19:13.669Z,73.40
2018-06-08T15:21:41.346Z,74.00
2018-06-08T15:24:08.836Z,75.10
2018-06-08T15:26:36.357Z,74.60
2018-06-08T15:29:03.992Z,77.10
2018-06-08T15:31:31.517Z,75.40
2018-06-08T15:33:59.080Z,74.20
2018-06-08T15:38:54.163Z,68.30
2018-06-08T15:41:21.717Z,65.40
2018-06-08T15:43:49.232Z,64.40
2018-06-08T15:46:16.742Z,62.20
2018-06-08T15:48:44.285Z,64.90
2018-06-08T15:51:11.824Z,64.10
2018-06-08T15:53:39.361Z,60.80
2018-06-08T15:56:06.971Z,58.20
2018-06-08T15:58:34.529Z,56.90
2018-06-08T16:01:02.085Z,55.90
2018-06-08T16:03:29.622Z,56.30
2018-06-08T16:05:57.158Z,54.30
2018-06-08T16:08:24.681Z,53.70
2018-06-08T16:10:52.196Z,55.40
2018-06-08T16:13:20.137Z,53.80
2018-06-08T16:18:16.217Z,53.70
2018-06-08T16:20:43.764Z,56.00
2018-06-08T16:23:11.297Z,56.40
2018-06-08T16:25:38.817Z,56.50
2018-06-08T16:28:06.410Z,57.00
2018-06-08T16:33:01.701Z,56.30
2018-06-08T16:35:29.281Z,58.50
2018-06-08T16:37:57.110Z,58.80
2018-06-08T16:40:24.724Z,57.50
2018-06-08T16:42:52.269Z,56.80
2018-06-08T16:45:19.833Z,54.80
2018-06-08T16:50:14.813Z,55.70
2018-06-08T16:52:42.344Z,57.90
2018-06-08T16:55:09.894Z,56.80
2018-06-08T16:57:37.473Z,56.40
2018-06-08T17:00:06.471Z,56.10
2018-06-08T17:02:33.977Z,56.90
2018-06-08T17:05:02.649Z,54.00
2018-06-08T17:09:57.717Z,54.30
2018-06-08T17:12:25.271Z,55.10
2018-06-08T17:14:52.847Z,54.80
2018-06-08T17:17:20.999Z,56.50
2018-06-08T17:19:48.622Z,56.30
2018-06-08T17:24:43.613Z,57.10
2018-06-08T17:27:15.270Z,60.30
2018-06-08T17:29:42.837Z,60.50
2018-06-08T17:32:10.604Z,59.90
2018-06-08T17:34:38.128Z,59.90
2018-06-08T17:37:05.861Z,61.60
2018-06-08T17:39:33.452Z,62.70
2018-06-08T17:42:01.023Z,65.10
2018-06-08T17:44:28.585Z,66.10
2018-06-08T17:46:56.113Z,66.40
2018-06-08T17:49:23.672Z,66.70
2018-06-08T17:51:51.253Z,67.10
2018-06-08T17:54:18.775Z,68.20
2018-06-08T17:56:46.332Z,67.70
2018-06-08T17:59:13.888Z,71.00
2018-06-08T18:01:41.416Z,72.20
2018-06-08T18:06:36.418Z,75.10
2018-06-08T18:09:06.077Z,76.30
2018-06-08T18:11:33.689Z,76.70
2018-06-08T18:16:28.794Z,80.20
2018-06-08T18:18:56.382Z,79.30
2018-06-08T18:21:23.952Z,80.10
2018-06-08T18:23:51.734Z,81.20
2018-06-08T18:26:19.292Z,82.10
2018-06-08T18:28:46.882Z,82.50
2018-06-08T18:31:14.393Z,82.20
2018-06-08T18:33:41.915Z,82.30
2018-06-08T18:36:09.470Z,83.90
2018-06-08T18:38:36.994Z,83.40
2018-06-08T18:41:04.578Z,84.80
2018-06-08T18:43:32.269Z,83.60
2018-06-08T18:45:59.796Z,85.40
2018-06-08T18:48:27.463Z,86.00
2018-06-08T18:50:55.005Z,86.10
2018-06-08T18:53:22.541Z,86.30
2018-06-08T18:55:50.067Z,86.70
2018-06-08T18:58:17.630Z,87.40
2018-06-08T19:00:45.223Z,87.10
2018-06-08T19:03:19.469Z,87.70
2018-06-08T19:05:47.120Z,88.60
2018-06-08T19:08:14.644Z,89.00
2018-06-08T19:10:42.176Z,89.40
2018-06-08T19:13:09.760Z,89.70
2018-06-08T19:15:37.274Z,90.30
2018-06-08T19:18:04.801Z,90.10
2018-06-08T19:20:32.317Z,90.40
2018-06-08T19:22:59.837Z,90.30
2018-06-08T19:25:27.397Z,90.80
2018-06-08T19:27:55.130Z,90.70
2018-06-08T19:30:22.657Z,90.80
2018-06-08T19:32:50.181Z,91.30
2018-06-08T19:35:17.716Z,90.70
2018-06-08T19:37:45.264Z,90.80
2018-06-08T19:40:12.836Z,91.30
2018-06-08T19:42:40.359Z,91.60
2018-06-08T19:45:07.905Z,91.70
2018-06-08T19:47:35.540Z,91.60
2018-06-08T19:50:03.118Z,92.00
2018-06-08T19:52:30.638Z,92.30
2018-06-08T19:54:58.171Z,92.60
2018-06-08T19:57:25.664Z,92.90
2018-06-08T19:59:53.328Z,93.20
2018-06-08T20:02:20.826Z,93.50
2018-06-08T20:04:48.380Z,93.80
2018-06-08T20:07:16.729Z,94.10
2018-06-08T20:09:44.370Z,94.10
2018-06-08T20:12:11.903Z,94.50
2018-06-08T20:14:39.470Z,94.50
2018-06-08T20:17:07.064Z,94.30
2018-06-08T20:19:34.637Z,94.50
2018-06-08T20:22:02.243Z,94.50
2018-06-08T20:24:29.760Z,94.60
2018-06-08T20:26:57.260Z,94.70
2018-06-08T20:29:24.829Z,94.60
2018-06-08T20:31:52.371Z,94.40
2018-06-08T20:34:19.853Z,94.30
2018-06-08T20:36:47.397Z,94.50
2018-06-08T20:39:14.902Z,95.00
2018-06-08T20:41:42.426Z,94.70
2018-06-08T20:44:10.624Z,94.70
2018-06-08T20:46:38.159Z,94.60
2018-06-08T20:49:05.672Z,94.90
2018-06-08T20:51:33.190Z,94.90
2018-06-08T20:54:00.697Z,95.00
2018-06-08T20:56:28.261Z,95.10
2018-06-08T20:58:55.833Z,95.30
2018-06-08T21:01:23.438Z,95.30
2018-06-08T21:03:50.959Z,95.30
2018-06-08T21:06:18.509Z,95.40
2018-06-08T21:08:46.047Z,95.50
2018-06-08T21:11:13.574Z,95.60
2018-06-08T21:13:41.083Z,95.70
2018-06-08T21:16:08.632Z,95.70
2018-06-08T21:18:36.206Z,95.90
2018-06-08T21:21:03.830Z,96.20
2018-06-08T21:23:31.494Z,96.20
2018-06-08T21:25:59.033Z,96.30
2018-06-08T21:28:26.546Z,96.40
2018-06-08T21:30:54.238Z,96.50
2018-06-08T21:33:21.893Z,96.60
2018-06-08T21:35:49.400Z,96.40
2018-06-08T21:38:16.944Z,96.50
2018-06-08T21:40:44.509Z,96.50
2018-06-08T21:43:12.029Z,96.60
2018-06-08T21:45:39.583Z,96.90
2018-06-08T21:48:07.254Z,97.00
2018-06-08T21:50:34.886Z,97.10
2018-06-08T21:53:02.544Z,97.10
2018-06-08T21:55:30.099Z,97.20
2018-06-08T21:57:57.693Z,97.30
2018-06-08T22:00:25.245Z,97.40
2018-06-08T22:02:52.815Z,97.20
2018-06-08T22:05:20.393Z,97.40
2018-06-08T22:07:47.956Z,97.40
2018-06-08T22:10:15.457Z,97.60
2018-06-08T22:12:42.965Z,97.40
2018-06-08T22:15:10.508Z,97.60
2018-06-08T22:17:38.057Z,97.50
2018-06-08T22:20:05.584Z,97.70
2018-06-08T22:22:33.109Z,97.80
2018-06-08T22:25:00.649Z,98.10
2018-06-08T22:27:28.297Z,98.10
2018-06-08T22:29:55.813Z,98.10
2018-06-08T22:32:23.341Z,98.30
2018-06-08T22:34:50.877Z,98.20
2018-06-08T22:37:18.514Z,98.50
2018-06-08T22:39:46.106Z,98.10
2018-06-08T22:42:13.629Z,98.00
2018-06-08T22:44:41.165Z,97.80
2018-06-08T22:47:08.686Z,97.80
2018-06-08T22:49:36.228Z,97.80
2018-06-08T22:52:04.060Z,97.80
2018-06-08T22:54:31.595Z,98.00
2018-06-08T22:56:59.210Z,98.00
2018-06-08T22:59:26.732Z,98.00
2018-06-08T23:01:54.251Z,97.80
2018-06-08T23:04:21.849Z,97.90
2018-06-08T23:06:49.349Z,97.90
2018-06-08T23:09:16.891Z,97.70
2018-06-08T23:11:44.423Z,97.80
2018-06-08T23:14:11.950Z,97.80
2018-06-08T23:16:39.485Z,97.70
2018-06-08T23:19:06.985Z,97.60
2018-06-08T23:21:34.522Z,97.30
2018-06-08T23:24:02.082Z,97.50
2018-06-08T23:26:29.597Z,97.60
2018-06-08T23:28:57.127Z,97.70
2018-06-08T23:31:24.631Z,97.80
2018-06-08T23:33:52.146Z,97.60
2018-06-08T23:36:20.444Z,97.50
2018-06-08T23:38:48.158Z,97.70
2018-06-08T23:41:15.689Z,97.90
2018-06-08T23:43:43.183Z,97.70
2018-06-08T23:46:10.704Z,97.80
2018-06-08T23:48:38.213Z,97.90
2018-06-08T23:51:06.421Z,97.90
2018-06-08T23:53:35.129Z,97.80
2018-06-08T23:56:02.649Z,98.00
2018-06-08T23:58:30.162Z,98.10
